createdAt,value
2023-02-16T00:01:36.259Z,101133.72
2023-02-16T00:06:41.644Z,101136.06
2023-02-16T00:12:08.542Z,101128.19
2023-02-16T00:17:13.980Z,101122.34
2023-02-16T00:22:19.264Z,101121.28
2023-02-16T00:27:24.636Z,101132.63
2023-02-16T00:32:29.741Z,101129.13
2023-02-16T00:37:35.020Z,101145.00
2023-02-16T00:42:41.064Z,101128.66
2023-02-16T00:47:49.039Z,101140.97
2023-02-16T00:52:55.937Z,101124.66
2023-02-16T00:58:23.218Z,101141.03
2023-02-16T01:03:30.121Z,101144.69
2023-02-16T01:08:55.035Z,101141.53
2023-02-16T01:14:00.237Z,101136.53
2023-02-16T01:19:08.209Z,101147.78
2023-02-16T01:24:13.149Z,101142.09
2023-02-16T01:29:20.699Z,101152.94
2023-02-16T01:34:27.935Z,101155.25
2023-02-16T01:39:38.837Z,101152.66
2023-02-16T01:45:18.209Z,101157.69
2023-02-16T01:50:28.315Z,101153.44
2023-02-16T01:55:38.692Z,101161.97
2023-02-16T02:00:55.948Z,101162.66
2023-02-16T02:06:01.329Z,101159.81
2023-02-16T02:11:20.200Z,101164.31
2023-02-16T02:16:33.896Z,101168.56
2023-02-16T02:22:46.795Z,101169.38
2023-02-16T02:28:02.020Z,101172.41
2023-02-16T02:33:26.806Z,101181.41
2023-02-16T02:38:59.543Z,101178.44
2023-02-16T02:44:09.741Z,101169.91
2023-02-16T02:49:13.920Z,101161.88
2023-02-16T02:54:44.228Z,101179.47
2023-02-16T03:00:23.504Z,101169.59
2023-02-16T03:05:31.964Z,101174.72
2023-02-16T03:10:56.337Z,101175.84
2023-02-16T03:16:08.244Z,101179.50
2023-02-16T03:21:35.142Z,101182.72
2023-02-16T03:27:00.124Z,101191.91
2023-02-16T03:32:05.830Z,101187.00
2023-02-16T03:37:11.522Z,101202.81
2023-02-16T03:42:16.530Z,101187.91
2023-02-16T03:47:21.760Z,101197.88
2023-02-16T03:52:26.716Z,101204.69
2023-02-16T03:57:32.249Z,101205.97
2023-02-16T04:02:38.816Z,101212.94
2023-02-16T04:07:42.918Z,101217.91
2023-02-16T04:12:48.205Z,101224.44
2023-02-16T04:17:53.532Z,101222.47
2023-02-16T04:22:59.294Z,101215.69
2023-02-16T04:28:04.526Z,101219.53
2023-02-16T04:33:10.123Z,101215.19
2023-02-16T04:38:15.379Z,101217.97
2023-02-16T04:43:21.053Z,101213.91
2023-02-16T04:48:26.307Z,101218.47
2023-02-16T04:53:30.326Z,101219.25
2023-02-16T04:58:36.104Z,101216.19
2023-02-16T05:03:42.147Z,101227.69
2023-02-16T05:08:47.504Z,101226.56
2023-02-16T05:14:10.371Z,101235.53
2023-02-16T05:19:14.712Z,101209.72
2023-02-16T05:24:20.773Z,101235.16
2023-02-16T05:29:25.912Z,101229.28
2023-02-16T05:34:31.067Z,101234.81
2023-02-16T05:39:35.944Z,101242.53
2023-02-16T05:44:40.056Z,101230.94
2023-02-16T05:49:44.242Z,101238.81
2023-02-16T05:54:48.306Z,101224.69
2023-02-16T05:59:52.285Z,101234.53
2023-02-16T06:04:56.282Z,101238.50
2023-02-16T06:10:00.661Z,101230.13
2023-02-16T06:15:05.808Z,101238.38
2023-02-16T06:20:10.316Z,101213.59
2023-02-16T06:25:14.265Z,101240.44
2023-02-16T06:30:19.794Z,101240.78
2023-02-16T06:35:24.184Z,101243.34
2023-02-16T06:40:28.416Z,101242.63
2023-02-16T06:45:32.497Z,101249.94
2023-02-16T06:50:36.839Z,101263.03
2023-02-16T06:55:40.921Z,101255.16
2023-02-16T07:00:45.398Z,101255.59
2023-02-16T07:05:50.532Z,101250.56
2023-02-16T07:10:55.928Z,101243.03
2023-02-16T07:15:59.917Z,101239.06
2023-02-16T07:21:04.497Z,101244.84
2023-02-16T07:26:09.099Z,101225.56
2023-02-16T07:31:15.821Z,101247.72
2023-02-16T07:36:19.995Z,101249.44
2023-02-16T07:41:24.335Z,101255.88
2023-02-16T07:46:28.593Z,101244.34
2023-02-16T07:51:32.875Z,101244.88
2023-02-16T07:56:37.321Z,101242.94
2023-02-16T08:01:42.158Z,101240.09
2023-02-16T08:06:47.691Z,101238.78
2023-02-16T08:11:53.715Z,101248.66
2023-02-16T08:16:57.824Z,101242.38
2023-02-16T08:22:05.030Z,101224.59
2023-02-16T08:27:09.447Z,101246.78
2023-02-16T08:32:15.124Z,101238.00
2023-02-16T08:37:23.198Z,101256.94
2023-02-16T08:42:28.330Z,101240.19
2023-02-16T08:47:32.498Z,101241.03
2023-02-16T08:52:36.823Z,101241.47
2023-02-16T08:57:41.113Z,101223.03
2023-02-16T09:02:45.260Z,101231.25
2023-02-16T09:07:49.267Z,101192.97
2023-02-16T09:12:53.344Z,101220.41
2023-02-16T09:17:57.413Z,101225.44
2023-02-16T09:23:01.443Z,101229.13
2023-02-16T09:28:07.083Z,101224.47
2023-02-16T09:33:11.142Z,101243.59
2023-02-16T09:38:17.373Z,101227.94
2023-02-16T09:43:48.058Z,101237.06
2023-02-16T09:48:53.636Z,101234.66
2023-02-16T09:54:04.894Z,101241.69
2023-02-16T09:59:22.895Z,101234.44
2023-02-16T10:04:51.994Z,101230.28
2023-02-16T10:09:57.696Z,101243.91
2023-02-16T10:15:10.192Z,101227.09
2023-02-16T10:20:23.876Z,101244.72
2023-02-16T10:25:55.470Z,101243.91
2023-02-16T10:31:06.734Z,101246.13
2023-02-16T10:36:50.508Z,101246.47
2023-02-16T10:42:27.709Z,101235.16
2023-02-16T10:47:38.062Z,101229.88
2023-02-16T10:52:43.320Z,101250.72
2023-02-16T10:57:55.137Z,101246.59
2023-02-16T11:03:04.293Z,101256.47
2023-02-16T11:08:13.270Z,101254.34
2023-02-16T11:13:33.026Z,101251.09
2023-02-16T11:18:41.144Z,101261.94
2023-02-16T11:23:59.563Z,101256.78
2023-02-16T11:29:22.778Z,101256.41
2023-02-16T11:34:42.985Z,101265.63
2023-02-16T11:39:53.526Z,101276.38
2023-02-16T11:45:00.332Z,101284.31
2023-02-16T11:50:30.381Z,101289.53
2023-02-16T11:55:34.495Z,101286.34
2023-02-16T12:00:39.553Z,101302.59
2023-02-16T12:06:22.852Z,101302.22
2023-02-16T12:11:40.276Z,101296.53
2023-02-16T12:17:04.585Z,101299.69
2023-02-16T12:22:36.823Z,101319.44
2023-02-16T12:27:55.243Z,101319.31
2023-02-16T12:33:16.521Z,101341.16
2023-02-16T12:38:45.905Z,101330.22
2023-02-16T12:43:54.731Z,101331.34
2023-02-16T12:49:14.569Z,101327.31
2023-02-16T12:54:37.803Z,101343.00
2023-02-16T13:00:15.824Z,101344.94
2023-02-16T13:05:27.202Z,101351.38
2023-02-16T13:10:40.864Z,101356.09
2023-02-16T13:15:52.161Z,101357.97
2023-02-16T13:21:33.314Z,101359.34
2023-02-16T13:27:09.894Z,101376.31
2023-02-16T13:32:39.201Z,101376.22
2023-02-16T13:38:01.566Z,101386.41
2023-02-16T13:43:24.767Z,101375.34
2023-02-16T13:48:51.054Z,101402.44
2023-02-16T13:54:02.084Z,101392.03
2023-02-16T13:59:20.027Z,101393.66
2023-02-16T14:04:28.140Z,101392.63
2023-02-16T14:09:40.431Z,101399.78
2023-02-16T14:14:58.982Z,101394.88
2023-02-16T14:20:13.519Z,101404.91
2023-02-16T14:25:24.836Z,101409.84
2023-02-16T14:30:40.434Z,101401.41
2023-02-16T14:36:01.632Z,101415.94
2023-02-16T14:41:33.152Z,101406.00
2023-02-16T14:47:11.248Z,101414.53
2023-02-16T14:53:03.620Z,101415.66
2023-02-16T14:58:37.677Z,101417.78
2023-02-16T15:03:55.022Z,101409.19
2023-02-16T15:09:17.606Z,101425.19
2023-02-16T15:14:23.400Z,101429.84
2023-02-16T15:19:31.724Z,101438.72
2023-02-16T15:24:37.838Z,101444.97
2023-02-16T15:29:43.269Z,101433.63
2023-02-16T15:34:50.819Z,101443.31
2023-02-16T15:40:23.141Z,101444.91
2023-02-16T15:45:38.598Z,101451.34
2023-02-16T15:50:46.019Z,101432.97
2023-02-16T15:55:52.078Z,101440.16
2023-02-16T16:00:57.407Z,101437.19
2023-02-16T16:06:07.115Z,101441.44
2023-02-16T16:11:12.835Z,101451.63
2023-02-16T16:16:18.590Z,101456.34
2023-02-16T16:21:42.490Z,101459.41
2023-02-16T16:26:57.753Z,101447.50
2023-02-16T16:32:05.165Z,101467.03
2023-02-16T16:37:34.037Z,101469.56
2023-02-16T16:42:39.747Z,101458.31
2023-02-16T16:47:52.330Z,101457.66
2023-02-16T16:52:58.653Z,101461.97
2023-02-16T16:58:08.799Z,101458.31
2023-02-16T17:03:15.527Z,101462.13
2023-02-16T17:08:20.619Z,101456.38
2023-02-16T17:13:26.270Z,101454.34
2023-02-16T17:18:31.586Z,101451.56
2023-02-16T17:23:37.018Z,101458.00
2023-02-16T17:28:42.375Z,101450.16
2023-02-16T17:33:47.655Z,101464.63
2023-02-16T17:38:52.936Z,101452.78
2023-02-16T17:43:58.259Z,101459.56
2023-02-16T17:49:03.620Z,101449.88
2023-02-16T17:54:09.427Z,101453.34
2023-02-16T17:59:15.885Z,101460.47
2023-02-16T18:04:21.446Z,101445.63
2023-02-16T18:09:26.668Z,101449.13
2023-02-16T18:14:31.923Z,101438.44
2023-02-16T18:19:37.406Z,101434.53
2023-02-16T18:24:44.988Z,101436.69
2023-02-16T18:29:50.489Z,101440.19
2023-02-16T18:34:56.312Z,101435.47
2023-02-16T18:40:01.786Z,101417.50
2023-02-16T18:45:08.808Z,101415.28
2023-02-16T18:50:14.322Z,101419.59
2023-02-16T18:55:20.488Z,101420.41
2023-02-16T19:00:25.723Z,101422.38
2023-02-16T19:05:31.179Z,101415.16
2023-02-16T19:10:36.475Z,101427.03
2023-02-16T19:15:41.890Z,101422.88
2023-02-16T19:20:47.419Z,101434.75
2023-02-16T19:25:52.635Z,101415.13
2023-02-16T19:31:04.273Z,101416.22
2023-02-16T19:36:11.627Z,101415.28
2023-02-16T19:41:20.367Z,101429.09
2023-02-16T19:46:27.144Z,101440.59
2023-02-16T19:51:32.665Z,101422.88
2023-02-16T19:56:43.537Z,101426.81
2023-02-16T20:01:48.982Z,101424.69
2023-02-16T20:06:55.182Z,101425.78
2023-02-16T20:12:00.650Z,101418.13
2023-02-16T20:17:05.905Z,101423.84
2023-02-16T20:22:11.739Z,101427.47
2023-02-16T20:27:17.080Z,101415.69
2023-02-16T20:32:27.250Z,101429.69
2023-02-16T20:37:32.438Z,101422.53
2023-02-16T20:42:37.744Z,101428.50
2023-02-16T20:47:43.368Z,101422.28
2023-02-16T20:52:48.765Z,101421.16
2023-02-16T20:57:54.113Z,101389.69
2023-02-16T21:02:59.294Z,101417.19
2023-02-16T21:08:04.705Z,101401.78
2023-02-16T21:13:09.764Z,101400.84
2023-02-16T21:18:14.997Z,101392.81
2023-02-16T21:23:20.379Z,101394.84
2023-02-16T21:28:26.083Z,101396.84
2023-02-16T21:33:31.529Z,101397.91
2023-02-16T21:38:37.888Z,101414.03
2023-02-16T21:43:43.167Z,101407.06
2023-02-16T21:48:49.151Z,101402.47
2023-02-16T21:53:55.230Z,101403.63
2023-02-16T21:59:01.394Z,101411.22
2023-02-16T22:04:07.466Z,101412.38
2023-02-16T22:09:18.966Z,101407.06
2023-02-16T22:14:24.422Z,101424.53
2023-02-16T22:19:29.885Z,101428.69
2023-02-16T22:24:35.260Z,101422.22
2023-02-16T22:29:40.761Z,101412.81
2023-02-16T22:34:46.107Z,101430.50
2023-02-16T22:39:52.592Z,101421.56
2023-02-16T22:44:57.976Z,101405.41
2023-02-16T22:50:03.249Z,101416.59
2023-02-16T22:55:09.398Z,101429.81
2023-02-16T23:00:17.461Z,101425.63
2023-02-16T23:05:22.678Z,101421.25
2023-02-16T23:10:28.090Z,101405.91
2023-02-16T23:15:35.775Z,101424.19
2023-02-16T23:20:41.194Z,101429.16
2023-02-16T23:25:48.990Z,101421.34
2023-02-16T23:31:00.822Z,101434.97
2023-02-16T23:36:06.764Z,101419.22
2023-02-16T23:41:16.297Z,101429.53
2023-02-16T23:46:21.555Z,101429.13
2023-02-16T23:51:27.239Z,101442.16
2023-02-16T23:56:32.685Z,101432.25
